Airfield :
LOGIN :

Register | Disclaimer

   EN    FR    IT 

 










Legend :    VFR   Marginal VFR   IFR   Intensive IFR   Very Intensive IFR
Visi :
Ceiling :
>= 8 km
>= 3000ft
5 to 8 km
1000 to 3000 ft
1500m to 5 km
500 to 1000 ft
800 to 1500m
200 to 500 ft
< 800m
< 200 ft
Symbols :   Thunderstorms  Fog  Heavy snow  Heavy precipitations  Wind > 20 kt
SIGMETs :     Misc.  Thunderstorms  Icing  Turbulence  Mountain Waves  Volcanic Ashes






- Airport Elevation : 464 ft
- IATA code : EVX


LFOE - Evreux

CURRENT METAR :
  • 022130Z AUTO 33005KT 300V010 CAVOK 19/09 Q1013 TEMPO FEW060TCU

EXPIRED METARs :
  • 022100Z AUTO 35005KT 320V030 CAVOK 20/09 Q1013 TEMPO FEW060TCU
  • 022030Z AUTO 36006KT 320V020 CAVOK 21/10 Q1013 TEMPO FEW060TCU
  • 022000Z AUTO 34005KT 310V020 CAVOK 22/10 Q1013 TEMPO FEW060TCU
  • 021930Z AUTO 34007KT 310V020 CAVOK 23/11 Q1013 TEMPO FEW060TCU
  • 021900Z AUTO 36007KT 9999 FEW001 23/12 Q1013 TEMPO FEW060TCU

TAF TAF LFOE
Valid from the 02 at 15:00 until the 03 at 15:00 UTC


021400Z 0215/0315 04003KT CAVOK
PROB30
TEMPO 0217/0223 01010G20KT FEW060TCU



MET'MAP, your aeronautical weather chart ! - Copyright ORBIFLY December 2007 - Disclaimer

ORBIFLY MET'MAP TEAM :

Programming & Development : Alexandra Zaïnal
Concept & original design : Baudouin d'Aumeries
Assistance for programming : Marc-Olivier Méhu
Technical & hardware support : Manuel Goepfert

Contact : metmap@orbifly.com




SOURCES & CREDITS :

   NOAA